Time;durP1;ratioP1;P1;durP2;ratioP2;P2;SDS_P1;SDS_P2;PMS_P1;PMS_P2;Temp;Humidity;BMP_temperature;BMP_pressure;BME280_temperature;BME280_humidity;BME280_pressure;Samples;Min_cycle;Max_cycle;Signal;HPM_P1;HPM_P2
2022/04/05 00:00:18;;;;;;;18.92;10.75;;;15.60;90.70;;;;;;4995830;28;20097;-60
2022/04/05 00:02:44;;;;;;;18.50;9.38;;;15.60;91.10;;;;;;4996106;28;20117;-59
2022/04/05 00:05:10;;;;;;;10.23;6.25;;;15.70;90.80;;;;;;4995984;28;20026;-57
2022/04/05 00:07:35;;;;;;;11.00;6.18;;;15.60;90.30;;;;;;4995715;28;20025;-53
2022/04/05 00:10:01;;;;;;;10.70;5.72;;;15.60;90.40;;;;;;4995526;28;20077;-54
2022/04/05 00:12:26;;;;;;;10.00;6.78;;;15.60;90.00;;;;;;4996027;28;20499;-57
2022/04/05 00:14:52;;;;;;;14.50;6.15;;;15.70;89.90;;;;;;4995663;28;20078;-55
2022/04/05 00:17:18;;;;;;;14.57;9.20;;;15.70;90.00;;;;;;4995963;28;20030;-56
2022/04/05 00:19:44;;;;;;;11.77;8.48;;;15.70;90.30;;;;;;4995610;28;20483;-61
2022/04/05 00:22:09;;;;;;;14.32;8.05;;;15.70;90.30;;;;;;4995436;28;20035;-60
2022/04/05 00:24:35;;;;;;;13.50;8.57;;;15.70;90.20;;;;;;4995563;28;20030;-52
2022/04/05 00:27:01;;;;;;;14.63;9.45;;;15.70;90.80;;;;;;4995639;28;20472;-62
2022/04/05 00:29:26;;;;;;;13.95;8.93;;;15.70;90.60;;;;;;4995304;28;20411;-53
2022/04/05 00:31:52;;;;;;;15.43;9.00;;;15.60;90.80;;;;;;4995269;28;20037;-59
2022/04/05 00:34:18;;;;;;;9.75;5.82;;;15.60;90.70;;;;;;4995506;28;20041;-62
2022/04/05 00:36:45;;;;;;;11.45;6.05;;;15.60;90.50;;;;;;4994989;28;20025;-61
2022/04/05 00:39:11;;;;;;;12.20;8.93;;;15.60;90.50;;;;;;4977624;28;20464;-61
2022/04/05 00:41:37;;;;;;;15.60;9.05;;;15.60;90.80;;;;;;4995361;28;20081;-55
2022/04/05 00:44:02;;;;;;;16.70;8.65;;;15.70;91.00;;;;;;4995239;28;20072;-57
2022/04/05 00:46:28;;;;;;;13.32;7.90;;;15.60;90.90;;;;;;4995120;28;20034;-62
2022/04/05 00:48:57;;;;;;;14.73;8.88;;;15.60;90.70;;;;;;4995048;28;20041;-61
2022/04/05 00:51:23;;;;;;;12.35;7.90;;;15.60;90.40;;;;;;4995029;28;20034;-58
2022/04/05 00:53:52;;;;;;;16.52;8.73;;;15.60;90.60;;;;;;4995288;28;20038;-55
2022/04/05 00:56:19;;;;;;;13.98;8.85;;;15.60;90.80;;;;;;4994830;28;20064;-61
2022/04/05 00:58:48;;;;;;;14.23;9.25;;;15.60;90.80;;;;;;4994930;28;20034;-55
2022/04/05 01:01:18;;;;;;;14.50;7.95;;;15.60;90.90;;;;;;4995151;28;20030;-61
2022/04/05 01:03:49;;;;;;;11.52;7.18;;;15.60;90.80;;;;;;4995048;28;20030;-61
2022/04/05 01:06:18;;;;;;;13.45;7.13;;;15.60;90.70;;;;;;4994442;28;20019;-55
2022/04/05 01:08:46;;;;;;;12.88;9.07;;;15.60;90.80;;;;;;4994839;28;20050;-58
2022/04/05 01:11:11;;;;;;;13.82;8.70;;;15.60;91.30;;;;;;4993902;28;20030;-59
2022/04/05 01:13:37;;;;;;;18.55;9.10;;;15.60;91.30;;;;;;4994613;28;20035;-61
2022/04/05 01:16:03;;;;;;;13.20;8.90;;;15.60;91.30;;;;;;4994473;28;20475;-61
2022/04/05 01:18:29;;;;;;;13.45;9.05;;;15.60;91.40;;;;;;4994501;28;20038;-57
2022/04/05 01:20:56;;;;;;;11.27;7.88;;;15.60;91.70;;;;;;4994251;28;20023;-58
2022/04/05 01:23:22;;;;;;;12.10;8.45;;;15.60;91.60;;;;;;4994377;28;20471;-54
2022/04/05 01:25:49;;;;;;;15.35;9.95;;;15.60;91.60;;;;;;4994507;28;20065;-56
2022/04/05 01:28:14;;;;;;;14.18;8.77;;;15.60;91.60;;;;;;4994159;28;20030;-54
2022/04/05 01:30:40;;;;;;;13.90;9.05;;;15.60;91.60;;;;;;4994506;28;20081;-54
2022/04/05 01:33:07;;;;;;;15.30;9.15;;;15.50;91.70;;;;;;4993888;28;20429;-58
2022/04/05 01:35:34;;;;;;;14.02;8.10;;;15.50;91.60;;;;;;4994115;28;20034;-56
2022/04/05 01:38:02;;;;;;;11.45;8.35;;;15.50;91.70;;;;;;4994145;28;20030;-55
2022/04/05 01:40:28;;;;;;;13.50;8.77;;;15.60;91.70;;;;;;4993824;28;20027;-61
2022/04/05 01:42:53;;;;;;;14.57;8.27;;;15.50;91.90;;;;;;4994456;28;20077;-55
2022/04/05 01:45:19;;;;;;;13.90;8.93;;;15.50;91.70;;;;;;4994314;28;20468;-60
2022/04/05 01:47:45;;;;;;;13.35;9.18;;;15.60;91.90;;;;;;4993740;28;20483;-59
2022/04/05 01:50:11;;;;;;;11.43;8.57;;;15.50;91.90;;;;;;4993651;28;20045;-61
2022/04/05 01:52:36;;;;;;;13.27;8.25;;;15.50;92.10;;;;;;4994105;28;20027;-61
2022/04/05 01:55:03;;;;;;;12.90;7.90;;;15.50;92.20;;;;;;4993842;28;20035;-61
2022/04/05 01:57:28;;;;;;;13.02;7.95;;;15.50;92.20;;;;;;4994013;28;20157;-60
2022/04/05 01:59:54;;;;;;;9.88;6.90;;;15.50;92.10;;;;;;4993551;28;20066;-60
2022/04/05 02:02:20;;;;;;;13.52;8.35;;;15.50;91.80;;;;;;4993622;28;20022;-55
2022/04/05 02:04:45;;;;;;;12.93;8.27;;;15.50;92.10;;;;;;4994130;28;20387;-56
2022/04/05 02:07:14;;;;;;;13.63;8.52;;;15.50;92.10;;;;;;4993655;28;20030;-61
2022/04/05 02:09:40;;;;;;;15.07;7.85;;;15.50;92.10;;;;;;4993370;28;20506;-55
2022/04/05 02:12:06;;;;;;;12.00;7.05;;;15.50;92.00;;;;;;4993739;28;20022;-53
2022/04/05 02:14:32;;;;;;;9.95;7.30;;;15.50;91.70;;;;;;4993740;28;20089;-53
2022/04/05 02:16:58;;;;;;;11.75;7.43;;;15.50;91.90;;;;;;4993565;28;20027;-55
2022/04/05 02:19:23;;;;;;;13.07;7.82;;;15.50;91.90;;;;;;4993404;28;20506;-61
2022/04/05 02:21:49;;;;;;;12.52;7.53;;;15.50;92.10;;;;;;4987376;28;20472;-62
2022/04/05 02:24:15;;;;;;;16.90;8.25;;;15.50;92.30;;;;;;4972792;28;20027;-61
2022/04/05 02:26:41;;;;;;;14.95;7.60;;;15.50;92.20;;;;;;4973730;28;20106;-57
2022/04/05 02:29:06;;;;;;;12.75;7.70;;;15.50;92.00;;;;;;4984469;28;20544;-56
2022/04/05 02:31:32;;;;;;;13.15;8.90;;;15.50;92.30;;;;;;4993446;28;20031;-56
2022/04/05 02:33:58;;;;;;;9.85;6.80;;;15.50;92.40;;;;;;4993495;28;20038;-56
2022/04/05 02:36:24;;;;;;;13.23;7.45;;;15.50;92.30;;;;;;4993154;28;20056;-56
2022/04/05 02:38:50;;;;;;;11.13;6.53;;;15.50;92.20;;;;;;4993554;28;20026;-54
2022/04/05 02:41:15;;;;;;;8.38;5.22;;;15.50;92.30;;;;;;4993500;28;20022;-57
2022/04/05 02:43:41;;;;;;;13.27;6.00;;;15.40;92.00;;;;;;4993546;28;20030;-55
2022/04/05 02:46:08;;;;;;;9.68;5.88;;;15.40;92.20;;;;;;4992732;28;20041;-56
2022/04/05 02:48:35;;;;;;;8.02;5.82;;;15.50;92.10;;;;;;4993456;28;20038;-56
2022/04/05 02:51:00;;;;;;;8.55;5.05;;;15.40;92.20;;;;;;4993627;28;20014;-56
2022/04/05 02:53:26;;;;;;;10.05;5.88;;;15.40;92.40;;;;;;4993003;28;20043;-53
2022/04/05 02:55:51;;;;;;;7.28;5.35;;;15.40;92.40;;;;;;4992955;28;20022;-53
2022/04/05 02:58:17;;;;;;;9.90;5.50;;;15.40;92.20;;;;;;4993036;28;20023;-54
2022/04/05 03:00:43;;;;;;;7.35;5.22;;;15.40;92.30;;;;;;4993146;28;20037;-55
2022/04/05 03:03:08;;;;;;;7.85;5.25;;;15.40;92.20;;;;;;4993310;28;20110;-56
2022/04/05 03:05:34;;;;;;;10.38;5.30;;;15.40;92.20;;;;;;4993103;28;20500;-54
2022/04/05 03:07:59;;;;;;;7.10;4.60;;;15.40;92.40;;;;;;4993309;28;20053;-55
2022/04/05 03:10:29;;;;;;;7.20;4.88;;;15.40;92.30;;;;;;4975700;28;20034;-56
2022/04/05 03:12:55;;;;;;;6.85;4.53;;;15.40;92.30;;;;;;4993250;28;20022;-55
2022/04/05 03:15:21;;;;;;;7.47;4.82;;;15.40;92.50;;;;;;4992801;28;20045;-58
2022/04/05 03:17:46;;;;;;;8.95;4.57;;;15.40;92.50;;;;;;4993381;28;20109;-55
2022/04/05 03:20:13;;;;;;;7.18;5.22;;;15.40;92.30;;;;;;4993214;28;20122;-55
2022/04/05 03:22:42;;;;;;;7.78;5.07;;;15.40;92.40;;;;;;4993170;28;20105;-56
2022/04/05 03:25:09;;;;;;;7.60;5.53;;;15.40;92.50;;;;;;4992632;28;20030;-57
2022/04/05 03:27:40;;;;;;;9.10;5.35;;;15.40;92.30;;;;;;4993319;28;20376;-55
2022/04/05 03:30:07;;;;;;;12.02;6.47;;;15.40;92.50;;;;;;4992931;28;20042;-55
2022/04/05 03:32:33;;;;;;;12.45;6.95;;;15.40;92.60;;;;;;4993120;28;20018;-55
2022/04/05 03:34:58;;;;;;;10.95;6.80;;;15.40;92.50;;;;;;4995703;28;20038;-56
2022/04/05 03:37:24;;;;;;;8.88;6.63;;;15.40;92.50;;;;;;4995767;28;20025;-54
2022/04/05 03:39:49;;;;;;;11.40;6.55;;;15.40;92.40;;;;;;4996669;28;20038;-56
2022/04/05 03:42:15;;;;;;;10.70;6.07;;;15.40;92.50;;;;;;4996536;28;20019;-54
2022/04/05 03:44:41;;;;;;;13.88;7.30;;;15.40;92.50;;;;;;4996149;28;20036;-59
2022/04/05 03:47:06;;;;;;;8.80;6.75;;;15.40;92.60;;;;;;4996032;28;20031;-59
2022/04/05 03:49:32;;;;;;;10.32;6.40;;;15.40;92.20;;;;;;4995986;28;20030;-62
2022/04/05 03:51:57;;;;;;;11.23;6.85;;;15.50;91.90;;;;;;4996321;28;20090;-61
2022/04/05 03:54:23;;;;;;;11.02;6.28;;;15.50;91.60;;;;;;4996101;28;20073;-62
2022/04/05 03:56:48;;;;;;;12.15;6.70;;;15.50;91.30;;;;;;4995915;28;20018;-62
2022/04/05 03:59:14;;;;;;;7.30;5.72;;;15.50;91.30;;;;;;4995979;28;20034;-62
2022/04/05 04:01:39;;;;;;;8.52;5.50;;;15.50;91.10;;;;;;4996045;28;20030;-62
2022/04/05 04:04:05;;;;;;;7.07;4.93;;;15.60;90.90;;;;;;4996060;28;20030;-59
2022/04/05 04:06:30;;;;;;;8.00;5.13;;;15.50;90.60;;;;;;4995784;28;20076;-59
2022/04/05 04:08:56;;;;;;;7.97;5.70;;;15.50;90.80;;;;;;4996113;28;20030;-59
2022/04/05 04:11:21;;;;;;;10.27;5.68;;;15.50;91.10;;;;;;4995947;28;20054;-59
2022/04/05 04:13:47;;;;;;;10.20;5.63;;;15.60;90.70;;;;;;4995760;28;20113;-60
2022/04/05 04:16:12;;;;;;;7.90;6.20;;;15.50;90.50;;;;;;4977959;28;20044;-59
2022/04/05 04:18:39;;;;;;;7.57;5.53;;;15.50;90.70;;;;;;4995811;28;20488;-61
2022/04/05 04:21:05;;;;;;;10.20;7.47;;;15.60;90.70;;;;;;4995563;28;20043;-62
2022/04/05 04:23:31;;;;;;;9.70;6.88;;;15.50;90.80;;;;;;4995793;28;20033;-61
2022/04/05 04:25:56;;;;;;;7.90;6.80;;;15.60;90.80;;;;;;4995256;28;20019;-62
2022/04/05 04:28:22;;;;;;;8.38;6.25;;;15.60;90.50;;;;;;4995378;28;20038;-62
2022/04/05 04:30:48;;;;;;;9.80;6.85;;;15.60;90.60;;;;;;4995593;28;20031;-62
2022/04/05 04:33:13;;;;;;;10.25;7.53;;;15.60;90.70;;;;;;4995624;28;20023;-62
2022/04/05 04:35:41;;;;;;;9.45;6.53;;;15.60;90.60;;;;;;4994916;28;20034;-62
2022/04/05 04:38:07;;;;;;;9.52;6.18;;;15.50;90.50;;;;;;4995511;28;20034;-62
2022/04/05 04:40:33;;;;;;;10.75;8.25;;;15.50;90.30;;;;;;4995444;28;20117;-62
2022/04/05 04:42:59;;;;;;;10.88;9.20;;;15.60;90.90;;;;;;4995162;28;20055;-62
2022/04/05 04:45:27;;;;;;;10.20;8.30;;;15.60;90.80;;;;;;4994945;28;20038;-61
2022/04/05 04:47:53;;;;;;;9.00;7.53;;;15.60;90.90;;;;;;4994888;28;20034;-61
2022/04/05 04:50:19;;;;;;;10.35;7.22;;;15.60;90.50;;;;;;4995124;28;20031;-59
2022/04/05 04:52:44;;;;;;;12.10;9.05;;;15.60;90.40;;;;;;4995153;28;20490;-60
2022/04/05 04:55:10;;;;;;;9.10;5.97;;;15.50;90.60;;;;;;4990647;28;20038;-60
2022/04/05 04:57:36;;;;;;;15.45;8.95;;;15.50;90.40;;;;;;4994631;28;20097;-59
2022/04/05 05:00:02;;;;;;;12.32;7.53;;;15.60;90.90;;;;;;4995041;28;20026;-59
2022/04/05 05:02:28;;;;;;;9.52;6.80;;;15.50;90.60;;;;;;4989671;28;20031;-60
2022/04/05 05:04:53;;;;;;;10.55;7.35;;;15.50;90.60;;;;;;4993129;28;20383;-61
2022/04/05 05:07:19;;;;;;;9.65;7.65;;;15.60;90.80;;;;;;4993097;28;20033;-61
2022/04/05 05:09:44;;;;;;;8.57;6.45;;;15.50;90.90;;;;;;4994197;28;20032;-61
2022/04/05 05:12:10;;;;;;;10.98;7.38;;;15.50;90.70;;;;;;4975893;28;20018;-62
2022/04/05 05:14:37;;;;;;;11.13;7.57;;;15.60;90.90;;;;;;4994446;28;20038;-62
2022/04/05 05:17:03;;;;;;;12.50;7.10;;;15.50;91.10;;;;;;4994574;28;20056;-62
2022/04/05 05:19:28;;;;;;;12.98;7.40;;;15.60;91.10;;;;;;4994344;28;20547;-59
2022/04/05 05:21:54;;;;;;;10.48;7.10;;;15.60;91.10;;;;;;4993282;28;20102;-59
2022/04/05 05:24:19;;;;;;;8.50;5.85;;;15.50;90.90;;;;;;4993112;28;20026;-60
2022/04/05 05:26:45;;;;;;;9.95;6.45;;;15.50;91.00;;;;;;4993473;28;20388;-59
2022/04/05 05:29:12;;;;;;;8.85;6.28;;;15.50;90.50;;;;;;4994674;28;20066;-59
2022/04/05 05:31:38;;;;;;;7.80;6.00;;;15.50;91.10;;;;;;4994214;28;20480;-59
2022/04/05 05:34:03;;;;;;;11.75;6.70;;;15.50;91.20;;;;;;4993902;28;20072;-59
2022/04/05 05:36:29;;;;;;;7.43;5.57;;;15.50;91.00;;;;;;4994209;28;20072;-59
2022/04/05 05:38:54;;;;;;;7.93;6.43;;;15.50;91.00;;;;;;4994511;28;20041;-59
2022/04/05 05:41:20;;;;;;;8.93;5.80;;;15.50;91.20;;;;;;4994054;28;20027;-58
2022/04/05 05:43:45;;;;;;;6.57;5.60;;;15.50;90.90;;;;;;4994146;28;20073;-59
2022/04/05 05:46:12;;;;;;;8.18;6.63;;;15.50;90.70;;;;;;4993927;28;20034;-59
2022/04/05 05:48:38;;;;;;;12.00;6.95;;;15.50;91.20;;;;;;4993996;28;20026;-59
2022/04/05 05:51:05;;;;;;;6.68;6.03;;;15.50;91.00;;;;;;4993587;28;20399;-60
2022/04/05 05:53:31;;;;;;;8.88;7.00;;;15.50;91.00;;;;;;4994035;28;20046;-61
2022/04/05 05:55:57;;;;;;;9.15;5.32;;;15.50;91.20;;;;;;4993273;28;20097;-59
2022/04/05 05:58:23;;;;;;;7.07;5.47;;;15.50;90.80;;;;;;4993930;28;20117;-58
2022/04/05 06:00:48;;;;;;;6.03;4.63;;;15.50;90.60;;;;;;4976337;28;20387;-60
2022/04/05 06:03:14;;;;;;;7.32;6.55;;;15.50;90.70;;;;;;4993843;28;20490;-61
2022/04/05 06:05:41;;;;;;;6.90;5.20;;;15.50;90.90;;;;;;4993842;28;20050;-59
2022/04/05 06:08:07;;;;;;;8.15;6.00;;;15.50;90.60;;;;;;4993906;28;20109;-59
2022/04/05 06:10:32;;;;;;;7.60;5.35;;;15.50;90.90;;;;;;4993203;28;20104;-59
2022/04/05 06:12:58;;;;;;;6.32;5.03;;;15.50;90.90;;;;;;4993789;28;20464;-59
2022/04/05 06:15:25;;;;;;;4.75;3.55;;;15.50;91.00;;;;;;4993752;28;20034;-59
2022/04/05 06:17:52;;;;;;;5.60;3.83;;;15.50;90.40;;;;;;4993828;28;20384;-58
2022/04/05 06:20:20;;;;;;;5.35;3.65;;;15.60;90.40;;;;;;4993479;28;20038;-59
2022/04/05 06:23:03;;;;;;;8.38;5.72;;;15.50;90.30;;;;;;4993335;28;20023;-59
2022/04/05 06:25:37;;;;;;;5.13;4.63;;;15.50;91.00;;;;;;4993303;28;20037;-59
2022/04/05 06:28:06;;;;;;;7.05;5.07;;;15.60;90.70;;;;;;4993630;28;20467;-59
2022/04/05 06:30:33;;;;;;;3.70;3.38;;;15.60;91.10;;;;;;4993445;28;20099;-59
2022/04/05 06:33:11;;;;;;;2.38;1.65;;;15.50;90.20;;;;;;4993585;28;20030;-59
2022/04/05 06:35:39;;;;;;;4.68;2.08;;;15.60;89.30;;;;;;4993545;28;20483;-74
2022/04/05 06:38:05;;;;;;;3.70;1.75;;;15.60;88.40;;;;;;4993147;28;20054;-62
2022/04/05 06:40:31;;;;;;;4.32;1.90;;;15.60;88.50;;;;;;4993263;28;20455;-62
2022/04/05 06:42:56;;;;;;;5.15;2.17;;;15.60;88.80;;;;;;4989273;28;20080;-61
2022/04/05 06:45:24;;;;;;;5.53;2.08;;;15.60;89.20;;;;;;4992728;28;20030;-61
2022/04/05 06:47:50;;;;;;;7.65;3.03;;;15.70;89.40;;;;;;4993366;28;20037;-61
2022/04/05 06:50:24;;;;;;;8.18;4.30;;;15.70;90.10;;;;;;4991110;28;20130;-62
2022/04/05 06:52:50;;;;;;;7.35;3.85;;;15.70;90.30;;;;;;4989428;28;20066;-61
2022/04/05 06:55:16;;;;;;;7.88;3.55;;;15.60;90.40;;;;;;4992337;28;20069;-61
2022/04/05 06:57:42;;;;;;;7.63;4.00;;;15.70;90.30;;;;;;4986724;28;20041;-61
2022/04/05 07:00:11;;;;;;;7.85;3.97;;;15.60;90.50;;;;;;4982234;28;20038;-67
2022/04/05 07:02:37;;;;;;;8.90;3.97;;;15.60;90.70;;;;;;4989393;28;20033;-67
2022/04/05 07:05:03;;;;;;;5.43;3.05;;;15.60;90.60;;;;;;4991359;28;20026;-61
2022/04/05 07:07:29;;;;;;;5.35;3.30;;;15.60;90.60;;;;;;4989114;28;20029;-61
2022/04/05 07:09:54;;;;;;;6.53;3.90;;;15.70;90.80;;;;;;4986437;28;20376;-62
2022/04/05 07:12:20;;;;;;;4.35;3.47;;;15.70;90.80;;;;;;4987531;28;20077;-61
2022/04/05 07:14:46;;;;;;;6.90;3.50;;;15.70;90.70;;;;;;4988092;28;20035;-61
2022/04/05 07:17:11;;;;;;;5.05;3.58;;;15.70;90.80;;;;;;4990526;28;20026;-66
2022/04/05 07:19:37;;;;;;;5.05;3.28;;;15.70;90.70;;;;;;4984517;28;20041;-63
2022/04/05 07:22:03;;;;;;;6.50;3.42;;;15.70;90.80;;;;;;4981115;28;20438;-63
2022/04/05 07:24:29;;;;;;;6.28;3.22;;;15.80;90.90;;;;;;4987361;28;20372;-63
2022/04/05 07:26:55;;;;;;;7.22;4.03;;;15.80;90.90;;;;;;4986093;28;20014;-63
2022/04/05 07:29:21;;;;;;;6.50;3.28;;;15.80;90.70;;;;;;4989081;28;20511;-67
2022/04/05 07:31:47;;;;;;;6.78;3.30;;;15.80;90.70;;;;;;4978122;28;20482;-62
2022/04/05 07:34:12;;;;;;;6.32;3.63;;;15.80;90.70;;;;;;4985667;28;20046;-63
2022/04/05 07:36:38;;;;;;;5.55;3.85;;;15.80;90.80;;;;;;4987514;28;20468;-65
2022/04/05 07:39:04;;;;;;;12.65;3.90;;;15.90;90.90;;;;;;4990699;28;20100;-63
2022/04/05 07:41:30;;;;;;;7.05;3.33;;;15.90;90.90;;;;;;4991715;28;20431;-60
2022/04/05 07:43:56;;;;;;;7.22;3.78;;;15.90;91.10;;;;;;4984660;28;20034;-64
2022/04/05 07:46:21;;;;;;;4.10;3.35;;;15.90;91.10;;;;;;4989497;28;20057;-65
2022/04/05 07:48:47;;;;;;;5.63;3.10;;;15.90;91.30;;;;;;4986830;28;20062;-66
2022/04/05 07:51:17;;;;;;;3.53;2.92;;;15.90;91.30;;;;;;4987582;28;20037;-67
2022/04/05 07:53:43;;;;;;;4.05;3.25;;;15.90;91.50;;;;;;4993574;28;20054;-60
2022/04/05 07:56:12;;;;;;;4.45;2.97;;;15.90;91.60;;;;;;4988254;28;20125;-66
2022/04/05 07:58:38;;;;;;;7.70;4.38;;;16.00;91.90;;;;;;4988008;28;20545;-71
2022/04/05 08:01:04;;;;;;;3.85;2.72;;;16.00;91.80;;;;;;4989230;28;20030;-62
2022/04/05 08:03:29;;;;;;;5.57;3.28;;;16.00;92.20;;;;;;4974300;28;20042;-62
2022/04/05 08:05:55;;;;;;;4.93;2.65;;;16.10;92.10;;;;;;4983681;28;21633;-68
2022/04/05 08:08:20;;;;;;;6.50;2.55;;;16.10;91.90;;;;;;4990703;28;20105;-68
2022/04/05 08:10:46;;;;;;;4.13;2.78;;;16.10;91.90;;;;;;4989035;28;20038;-65
2022/04/05 08:13:12;;;;;;;3.58;3.22;;;16.20;92.10;;;;;;4991228;28;20109;-66
2022/04/05 08:15:41;;;;;;;5.10;3.13;;;16.20;91.90;;;;;;4970916;28;20038;-62
2022/04/05 08:18:07;;;;;;;6.93;3.80;;;16.20;91.90;;;;;;4985478;28;20149;-64
2022/04/05 08:20:34;;;;;;;8.73;3.25;;;16.20;92.00;;;;;;4984728;28;20038;-68
2022/04/05 08:23:00;;;;;;;4.50;3.17;;;16.30;91.80;;;;;;4990913;28;20495;-62
2022/04/05 08:25:25;;;;;;;7.95;4.13;;;16.30;91.70;;;;;;4985023;28;20468;-64
2022/04/05 08:27:51;;;;;;;7.35;4.57;;;16.30;91.70;;;;;;4960613;28;20055;-64
2022/04/05 08:30:17;;;;;;;6.35;4.07;;;16.30;91.70;;;;;;4983789;28;20027;-63
2022/04/05 08:32:44;;;;;;;6.75;5.78;;;16.30;91.70;;;;;;4990451;28;20030;-64
2022/04/05 08:35:12;;;;;;;5.90;5.10;;;16.30;91.70;;;;;;4987904;28;20030;-66
2022/04/05 08:37:39;;;;;;;4.85;3.80;;;16.30;91.70;;;;;;4987609;28;20018;-68
2022/04/05 08:40:07;;;;;;;4.82;4.32;;;16.30;91.70;;;;;;4982248;28;20014;-67
2022/04/05 08:42:34;;;;;;;5.32;4.57;;;16.30;91.70;;;;;;4985476;28;20045;-70
2022/04/05 08:45:04;;;;;;;6.78;4.95;;;16.30;91.60;;;;;;4982462;28;20029;-63
2022/04/05 08:47:30;;;;;;;8.05;4.25;;;16.30;91.70;;;;;;4988555;28;20022;-65
2022/04/05 08:49:57;;;;;;;4.60;4.07;;;16.40;91.60;;;;;;4987011;28;20479;-67
2022/04/05 08:52:23;;;;;;;5.93;3.13;;;16.50;91.60;;;;;;4986498;28;21532;-68
2022/04/05 08:54:49;;;;;;;6.65;3.92;;;16.50;91.30;;;;;;4986824;28;20031;-66
2022/04/05 08:57:14;;;;;;;5.28;3.65;;;16.50;91.30;;;;;;4985391;28;20069;-61
2022/04/05 08:59:40;;;;;;;6.50;4.35;;;16.50;91.30;;;;;;4988478;28;20039;-64
2022/04/05 09:02:06;;;;;;;4.50;3.53;;;16.50;91.20;;;;;;4978923;28;20031;-62
2022/04/05 09:04:33;;;;;;;5.25;3.45;;;16.60;91.30;;;;;;4992255;28;20038;-64
2022/04/05 09:07:18;;;;;;;6.55;3.88;;;16.50;91.30;;;;;;4993126;28;20018;-66
2022/04/05 09:09:44;;;;;;;5.93;3.65;;;16.60;91.20;;;;;;4992781;28;20523;-67
2022/04/05 09:12:16;;;;;;;7.40;3.90;;;16.60;91.40;;;;;;4984911;28;20165;-64
2022/04/05 09:14:42;;;;;;;8.65;3.95;;;16.70;91.40;;;;;;4982021;28;20065;-63
2022/04/05 09:17:12;;;;;;;6.40;5.78;;;16.70;91.40;;;;;;4988239;28;20516;-69
2022/04/05 09:19:42;;;;;;;7.57;3.63;;;16.70;91.50;;;;;;4990482;28;20056;-63
2022/04/05 09:22:08;;;;;;;5.10;3.53;;;16.70;91.40;;;;;;5004261;28;20045;-66
2022/04/05 09:24:35;;;;;;;6.45;4.50;;;16.80;91.30;;;;;;4987282;28;20062;-69
2022/04/05 09:27:01;;;;;;;9.38;5.63;;;16.80;91.20;;;;;;4983569;28;20034;-63
2022/04/05 09:29:44;;;;;;;11.02;4.43;;;16.70;91.30;;;;;;4990112;28;20488;-68
2022/04/05 09:32:30;;;;;;;9.13;5.90;;;16.80;91.20;;;;;;4981674;28;20030;-62
2022/04/05 09:34:56;;;;;;;8.55;5.93;;;16.80;91.30;;;;;;4987458;28;20088;-67
2022/04/05 09:37:28;;;;;;;6.47;5.03;;;16.80;91.30;;;;;;4987077;28;20104;-61
2022/04/05 09:39:55;;;;;;;;;;;16.80;91.40;;;;;;4987458;28;20030;-67
2022/04/05 09:42:21;;;;;;;6.97;4.07;;;16.90;91.40;;;;;;4967168;28;20382;-68
2022/04/05 09:44:46;;;;;;;5.75;4.78;;;16.90;91.50;;;;;;4989857;28;20027;-70
2022/04/05 09:47:16;;;;;;;6.13;4.10;;;16.90;91.30;;;;;;4994119;28;20061;-70
2022/04/05 09:49:43;;;;;;;5.50;3.72;;;16.90;91.20;;;;;;4989506;28;20434;-70
2022/04/05 09:52:29;;;;;;;4.80;3.80;;;17.00;91.20;;;;;;4985764;28;20046;-69
2022/04/05 09:54:56;;;;;;;9.10;4.30;;;17.10;91.20;;;;;;4985163;28;20030;-67
2022/04/05 09:57:34;;;;;;;6.43;4.03;;;17.10;91.10;;;;;;4980842;28;20045;-62
2022/04/05 10:00:17;;;;;;;6.13;4.68;;;17.10;91.20;;;;;;4990417;28;20380;-69
2022/04/05 10:03:04;;;;;;;5.65;4.70;;;17.10;91.20;;;;;;4964048;28;20089;-67
2022/04/05 10:05:31;;;;;;;7.85;5.95;;;17.10;91.30;;;;;;4989565;28;20030;-62
2022/04/05 10:07:57;;;;;;;7.85;7.15;;;17.10;91.50;;;;;;4980815;28;20392;-63
2022/04/05 10:10:23;;;;;;;9.13;8.23;;;17.10;91.70;;;;;;4991079;28;20058;-62
2022/04/05 10:12:49;;;;;;;9.98;9.10;;;17.10;91.70;;;;;;4990724;28;20042;-64
2022/04/05 10:15:15;;;;;;;10.35;9.18;;;17.10;91.90;;;;;;4980918;28;20513;-69
2022/04/05 10:17:44;;;;;;;9.50;8.50;;;17.00;92.10;;;;;;4984239;28;21461;-63
2022/04/05 10:20:09;;;;;;;8.90;8.10;;;16.90;91.90;;;;;;4981675;28;20153;-71
2022/04/05 10:22:37;;;;;;;8.23;7.43;;;16.90;92.30;;;;;;4987286;28;20041;-63
2022/04/05 10:25:03;;;;;;;7.05;6.18;;;16.80;92.20;;;;;;4990064;28;20096;-69
2022/04/05 10:27:29;;;;;;;9.80;5.85;;;16.80;92.30;;;;;;4998461;28;20507;-65
2022/04/05 10:30:15;;;;;;;6.68;4.85;;;16.80;92.30;;;;;;4988313;28;20022;-67
2022/04/05 10:33:14;;;;;;;6.55;5.78;;;16.90;92.20;;;;;;4987502;28;20620;-67
2022/04/05 10:35:57;;;;;;;7.72;6.93;;;16.90;92.40;;;;;;4985942;28;20038;-68
2022/04/05 10:38:24;;;;;;;7.55;6.88;;;16.80;92.80;;;;;;4984028;28;20631;-65
2022/04/05 10:41:17;;;;;;;7.82;7.05;;;16.80;93.10;;;;;;4979410;28;20023;-64
2022/04/05 10:43:44;;;;;;;9.48;7.60;;;16.80;93.20;;;;;;4989999;28;20366;-64
2022/04/05 10:46:10;;;;;;;9.10;8.20;;;16.80;93.10;;;;;;4992260;28;20073;-62
2022/04/05 10:48:37;;;;;;;9.85;8.77;;;16.70;93.30;;;;;;4994710;28;20022;-69
2022/04/05 10:51:03;;;;;;;9.43;8.40;;;16.80;93.40;;;;;;4994915;28;20022;-69
2022/04/05 10:53:36;;;;;;;7.78;7.07;;;16.80;93.30;;;;;;4993036;28;20022;-62
2022/04/05 10:56:09;;;;;;;6.20;5.60;;;16.80;93.40;;;;;;4995151;28;20531;-61
2022/04/05 10:58:48;;;;;;;7.38;5.90;;;16.80;93.30;;;;;;4990283;28;20058;-63
2022/04/05 11:01:20;;;;;;;6.88;5.60;;;16.90;93.30;;;;;;4989069;28;20034;-64
2022/04/05 11:04:18;;;;;;;8.10;5.20;;;16.90;93.30;;;;;;4994243;28;20026;-64
2022/04/05 11:07:02;;;;;;;10.05;6.13;;;16.90;93.30;;;;;;4995981;28;20023;-69
2022/04/05 11:09:32;;;;;;;8.65;5.85;;;16.90;93.30;;;;;;4990871;28;20486;-68
2022/04/05 11:12:04;;;;;;;12.25;5.55;;;17.00;93.10;;;;;;4969297;28;20445;-69
2022/04/05 11:14:47;;;;;;;7.90;4.90;;;17.10;92.60;;;;;;4987861;28;20034;-69
2022/04/05 11:17:14;;;;;;;6.68;5.22;;;17.20;92.40;;;;;;4990444;28;20026;-72
2022/04/05 11:19:43;;;;;;;7.32;4.88;;;17.20;92.30;;;;;;4964293;28;20484;-72
2022/04/05 11:22:20;;;;;;;7.72;4.25;;;17.20;92.10;;;;;;4989648;28;20128;-68
2022/04/05 11:25:05;;;;;;;4.82;3.70;;;17.20;91.90;;;;;;4988078;28;20043;-72
2022/04/05 11:27:45;;;;;;;5.22;3.90;;;17.30;91.80;;;;;;4993566;28;20030;-70
2022/04/05 11:30:23;;;;;;;4.82;2.90;;;17.30;91.70;;;;;;4990775;28;20344;-70
2022/04/05 11:33:10;;;;;;;5.00;3.75;;;17.30;91.60;;;;;;4988194;28;20030;-62
2022/04/05 11:35:36;;;;;;;6.53;3.15;;;17.40;91.80;;;;;;4987561;28;20564;-67
2022/04/05 11:38:03;;;;;;;3.70;3.03;;;17.30;91.70;;;;;;4983749;28;20030;-62
2022/04/05 11:40:30;;;;;;;10.50;3.20;;;17.30;91.70;;;;;;4986805;28;20051;-64
2022/04/05 11:43:00;;;;;;;4.03;3.47;;;17.40;91.60;;;;;;4981438;28;20025;-67
2022/04/05 11:45:26;;;;;;;4.43;3.15;;;17.40;91.70;;;;;;4988852;28;20066;-61
2022/04/05 11:47:53;;;;;;;3.72;3.03;;;17.40;91.60;;;;;;4990903;28;20049;-71
2022/04/05 11:50:20;;;;;;;3.95;2.80;;;17.40;91.60;;;;;;4984118;28;20048;-70
2022/04/05 11:52:45;;;;;;;5.13;2.67;;;17.40;91.50;;;;;;4991301;28;20491;-65
2022/04/05 11:58:02;;;;;;;4.32;2.10;;;17.50;91.40;;;;;;4980488;28;20089;-67
2022/04/05 12:00:27;;;;;;;2.70;1.90;;;17.50;91.30;;;;;;4988955;28;20061;-68
2022/04/05 12:03:07;;;;;;;3.75;2.08;;;17.60;91.30;;;;;;4991497;28;20093;-69
2022/04/05 12:05:46;;;;;;;3.78;1.88;;;17.60;91.20;;;;;;4982483;28;20038;-70
2022/04/05 12:08:15;;;;;;;5.22;1.70;;;17.60;91.10;;;;;;4977534;28;20090;-71
2022/04/05 12:10:42;;;;;;;5.47;2.00;;;17.60;91.10;;;;;;4986453;28;20031;-66
2022/04/05 12:13:08;;;;;;;2.00;1.65;;;17.70;91.10;;;;;;4987550;28;20057;-69
2022/04/05 12:15:36;;;;;;;4.00;1.88;;;17.70;91.00;;;;;;4981016;28;20403;-67
2022/04/05 12:18:24;;;;;;;5.05;1.98;;;17.70;91.30;;;;;;4999952;28;20034;-67
2022/04/05 12:21:06;;;;;;;1.92;1.40;;;17.70;90.80;;;;;;4977396;28;20065;-64
2022/04/05 12:23:41;;;;;;;2.03;1.45;;;17.70;90.80;;;;;;4991925;28;20053;-68
2022/04/05 12:26:23;;;;;;;2.58;1.30;;;17.70;90.70;;;;;;4980989;28;20030;-69
2022/04/05 12:28:54;;;;;;;2.13;1.38;;;17.80;90.50;;;;;;4959793;28;20080;-69
2022/04/05 12:31:26;;;;;;;2.35;1.38;;;17.80;90.50;;;;;;4987907;28;20026;-62
2022/04/05 12:33:56;;;;;;;2.65;1.40;;;17.80;90.30;;;;;;4964154;28;20105;-70
2022/04/05 12:36:22;;;;;;;2.03;1.05;;;17.80;90.30;;;;;;4987700;28;20038;-70
2022/04/05 12:38:49;;;;;;;2.10;1.13;;;17.80;90.10;;;;;;4980499;28;20029;-67
2022/04/05 12:41:21;;;;;;;1.35;1.20;;;17.80;90.00;;;;;;4987627;28;20029;-70
2022/04/05 12:44:06;;;;;;;1.58;1.33;;;17.90;89.90;;;;;;4985742;28;20527;-70
2022/04/05 12:46:52;;;;;;;1.92;1.25;;;17.90;89.60;;;;;;4984868;28;20032;-71
2022/04/05 12:49:31;;;;;;;1.70;1.20;;;17.90;89.30;;;;;;4983948;28;20018;-67